sensor_id;sensor_type;location;lat;lon;timestamp;pressure;altitude;pressure_sealevel;temperature;humidity
8334;BME280;4204;43.004;23.052;2023-05-23T00:00:50;93673.91;;;14.26;100.00
8334;BME280;4204;43.004;23.052;2023-05-23T00:03:17;93679.41;;;14.29;100.00
8334;BME280;4204;43.004;23.052;2023-05-23T00:05:48;93662.31;;;14.22;100.00
8334;BME280;4204;43.004;23.052;2023-05-23T00:08:16;93682.38;;;14.28;100.00
8334;BME280;4204;43.004;23.052;2023-05-23T00:10:44;93675.47;;;14.27;100.00
8334;BME280;4204;43.004;23.052;2023-05-23T00:13:13;93673.81;;;14.34;100.00
8334;BME280;4204;43.004;23.052;2023-05-23T00:15:41;93675.69;;;14.34;100.00
8334;BME280;4204;43.004;23.052;2023-05-23T00:18:10;93672.69;;;14.35;100.00
8334;BME280;4204;43.004;23.052;2023-05-23T00:20:38;93668.13;;;14.36;100.00
8334;BME280;4204;43.004;23.052;2023-05-23T00:23:07;93668.81;;;14.33;100.00
8334;BME280;4204;43.004;23.052;2023-05-23T00:25:35;93666.22;;;14.36;100.00
8334;BME280;4204;43.004;23.052;2023-05-23T00:28:04;93660.47;;;14.10;100.00
8334;BME280;4204;43.004;23.052;2023-05-23T00:30:33;93659.50;;;13.78;100.00
8334;BME280;4204;43.004;23.052;2023-05-23T00:33:01;93655.63;;;13.52;100.00
8334;BME280;4204;43.004;23.052;2023-05-23T00:35:28;93665.53;;;13.39;100.00
8334;BME280;4204;43.004;23.052;2023-05-23T00:37:56;93670.63;;;13.20;100.00
8334;BME280;4204;43.004;23.052;2023-05-23T00:40:24;93663.94;;;13.14;100.00
8334;BME280;4204;43.004;23.052;2023-05-23T00:42:51;93660.63;;;13.53;100.00
8334;BME280;4204;43.004;23.052;2023-05-23T00:45:19;93654.16;;;13.91;100.00
8334;BME280;4204;43.004;23.052;2023-05-23T00:47:48;93660.94;;;14.00;100.00
8334;BME280;4204;43.004;23.052;2023-05-23T00:50:18;93659.63;;;13.58;100.00
8334;BME280;4204;43.004;23.052;2023-05-23T00:52:47;93666.66;;;13.62;100.00
8334;BME280;4204;43.004;23.052;2023-05-23T00:55:15;93651.63;;;13.34;100.00
8334;BME280;4204;43.004;23.052;2023-05-23T00:57:42;93655.63;;;13.40;100.00
8334;BME280;4204;43.004;23.052;2023-05-23T01:00:12;93654.63;;;13.44;100.00
8334;BME280;4204;43.004;23.052;2023-05-23T01:02:43;93652.06;;;13.60;100.00
8334;BME280;4204;43.004;23.052;2023-05-23T01:05:14;93648.94;;;13.58;100.00
8334;BME280;4204;43.004;23.052;2023-05-23T01:07:43;93642.72;;;13.42;100.00
8334;BME280;4204;43.004;23.052;2023-05-23T01:10:10;93652.28;;;13.43;100.00
8334;BME280;4204;43.004;23.052;2023-05-23T01:12:45;93644.16;;;13.15;100.00
8334;BME280;4204;43.004;23.052;2023-05-23T01:15:18;93645.69;;;12.71;100.00
8334;BME280;4204;43.004;23.052;2023-05-23T01:17:51;93643.72;;;12.48;100.00
8334;BME280;4204;43.004;23.052;2023-05-23T01:20:24;93640.94;;;12.44;100.00
8334;BME280;4204;43.004;23.052;2023-05-23T01:23:21;93639.13;;;12.36;100.00
8334;BME280;4204;43.004;23.052;2023-05-23T01:26:09;93636.03;;;12.13;100.00
8334;BME280;4204;43.004;23.052;2023-05-23T01:28:44;93634.00;;;12.10;100.00
8334;BME280;4204;43.004;23.052;2023-05-23T01:31:13;93629.06;;;12.00;100.00
8334;BME280;4204;43.004;23.052;2023-05-23T01:33:42;93624.41;;;12.18;100.00
8334;BME280;4204;43.004;23.052;2023-05-23T01:36:12;93629.50;;;12.23;100.00
8334;BME280;4204;43.004;23.052;2023-05-23T01:38:40;93629.06;;;12.21;100.00
8334;BME280;4204;43.004;23.052;2023-05-23T01:41:08;93623.09;;;12.24;100.00
8334;BME280;4204;43.004;23.052;2023-05-23T01:43:37;93613.13;;;12.12;100.00
8334;BME280;4204;43.004;23.052;2023-05-23T01:46:07;93614.13;;;12.08;100.00
8334;BME280;4204;43.004;23.052;2023-05-23T01:48:35;93613.59;;;11.94;100.00
8334;BME280;4204;43.004;23.052;2023-05-23T01:51:05;93612.31;;;12.00;100.00
8334;BME280;4204;43.004;23.052;2023-05-23T01:53:34;93613.63;;;12.14;100.00
8334;BME280;4204;43.004;23.052;2023-05-23T01:56:03;93620.16;;;12.17;100.00
8334;BME280;4204;43.004;23.052;2023-05-23T01:58:30;93613.41;;;12.19;100.00
8334;BME280;4204;43.004;23.052;2023-05-23T02:00:58;93618.28;;;12.17;100.00
8334;BME280;4204;43.004;23.052;2023-05-23T02:03:27;93612.66;;;12.31;100.00
8334;BME280;4204;43.004;23.052;2023-05-23T02:05:55;93604.13;;;12.05;100.00
8334;BME280;4204;43.004;23.052;2023-05-23T02:08:23;93622.59;;;11.69;100.00
8334;BME280;4204;43.004;23.052;2023-05-23T02:10:51;93615.75;;;11.51;100.00
8334;BME280;4204;43.004;23.052;2023-05-23T02:13:19;93617.91;;;11.57;100.00
8334;BME280;4204;43.004;23.052;2023-05-23T02:15:47;93618.56;;;11.83;100.00
8334;BME280;4204;43.004;23.052;2023-05-23T02:18:17;93615.63;;;11.97;100.00
8334;BME280;4204;43.004;23.052;2023-05-23T02:20:48;93622.72;;;12.13;100.00
8334;BME280;4204;43.004;23.052;2023-05-23T02:23:17;93622.78;;;12.05;100.00
8334;BME280;4204;43.004;23.052;2023-05-23T02:25:44;93616.13;;;11.90;100.00
8334;BME280;4204;43.004;23.052;2023-05-23T02:28:12;93613.34;;;12.07;100.00
8334;BME280;4204;43.004;23.052;2023-05-23T02:30:40;93612.59;;;12.19;100.00
8334;BME280;4204;43.004;23.052;2023-05-23T02:33:07;93615.47;;;12.35;100.00
8334;BME280;4204;43.004;23.052;2023-05-23T02:35:36;93615.63;;;12.50;100.00
8334;BME280;4204;43.004;23.052;2023-05-23T02:38:05;93619.88;;;12.63;100.00
8334;BME280;4204;43.004;23.052;2023-05-23T02:40:32;93619.28;;;12.25;100.00
8334;BME280;4204;43.004;23.052;2023-05-23T02:43:01;93617.72;;;12.12;100.00
8334;BME280;4204;43.004;23.052;2023-05-23T02:45:29;93613.75;;;11.77;100.00
8334;BME280;4204;43.004;23.052;2023-05-23T02:47:58;93616.16;;;11.61;100.00
8334;BME280;4204;43.004;23.052;2023-05-23T02:50:26;93619.47;;;11.67;100.00
8334;BME280;4204;43.004;23.052;2023-05-23T02:52:53;93617.56;;;11.67;100.00
8334;BME280;4204;43.004;23.052;2023-05-23T02:55:23;93612.97;;;11.97;100.00
8334;BME280;4204;43.004;23.052;2023-05-23T02:57:51;93612.69;;;11.90;100.00
8334;BME280;4204;43.004;23.052;2023-05-23T03:00:19;93620.63;;;11.98;100.00
8334;BME280;4204;43.004;23.052;2023-05-23T03:02:51;93619.88;;;11.98;100.00
8334;BME280;4204;43.004;23.052;2023-05-23T03:05:19;93625.09;;;11.86;100.00
8334;BME280;4204;43.004;23.052;2023-05-23T03:07:46;93617.50;;;11.76;100.00
8334;BME280;4204;43.004;23.052;2023-05-23T03:10:14;93620.16;;;11.76;100.00
8334;BME280;4204;43.004;23.052;2023-05-23T03:12:43;93626.34;;;12.09;100.00
8334;BME280;4204;43.004;23.052;2023-05-23T03:15:11;93629.06;;;11.80;100.00
8334;BME280;4204;43.004;23.052;2023-05-23T03:17:41;93633.03;;;11.74;100.00
8334;BME280;4204;43.004;23.052;2023-05-23T03:20:10;93637.72;;;11.97;100.00
8334;BME280;4204;43.004;23.052;2023-05-23T03:22:38;93644.09;;;12.26;100.00
8334;BME280;4204;43.004;23.052;2023-05-23T03:25:08;93640.03;;;12.40;100.00
8334;BME280;4204;43.004;23.052;2023-05-23T03:27:36;93646.09;;;12.49;100.00
8334;BME280;4204;43.004;23.052;2023-05-23T03:30:07;93630.72;;;12.46;100.00
8334;BME280;4204;43.004;23.052;2023-05-23T03:32:35;93647.84;;;12.45;100.00
8334;BME280;4204;43.004;23.052;2023-05-23T03:35:04;93650.63;;;12.49;100.00
8334;BME280;4204;43.004;23.052;2023-05-23T03:37:31;93655.69;;;12.42;100.00
8334;BME280;4204;43.004;23.052;2023-05-23T03:39:59;93654.03;;;12.37;100.00
8334;BME280;4204;43.004;23.052;2023-05-23T03:42:27;93640.78;;;12.29;100.00
8334;BME280;4204;43.004;23.052;2023-05-23T03:44:55;93648.72;;;12.16;100.00
8334;BME280;4204;43.004;23.052;2023-05-23T03:47:24;93645.84;;;12.01;100.00
8334;BME280;4204;43.004;23.052;2023-05-23T03:49:53;93651.38;;;11.96;100.00
8334;BME280;4204;43.004;23.052;2023-05-23T03:52:21;93649.53;;;11.88;100.00
8334;BME280;4204;43.004;23.052;2023-05-23T03:54:49;93655.72;;;11.80;100.00
8334;BME280;4204;43.004;23.052;2023-05-23T03:57:17;93651.28;;;11.84;100.00
8334;BME280;4204;43.004;23.052;2023-05-23T03:59:45;93653.97;;;11.84;100.00
8334;BME280;4204;43.004;23.052;2023-05-23T04:02:13;93644.16;;;11.96;100.00
8334;BME280;4204;43.004;23.052;2023-05-23T04:04:42;93640.56;;;12.13;100.00
8334;BME280;4204;43.004;23.052;2023-05-23T04:07:09;93651.50;;;12.20;100.00
8334;BME280;4204;43.004;23.052;2023-05-23T04:09:39;93647.53;;;12.26;100.00
8334;BME280;4204;43.004;23.052;2023-05-23T04:12:09;93666.59;;;12.37;100.00
8334;BME280;4204;43.004;23.052;2023-05-23T04:14:37;93651.75;;;12.27;100.00
8334;BME280;4204;43.004;23.052;2023-05-23T04:17:05;93652.59;;;12.19;100.00
8334;BME280;4204;43.004;23.052;2023-05-23T04:19:34;93653.91;;;11.92;100.00
8334;BME280;4204;43.004;23.052;2023-05-23T04:22:04;93655.53;;;11.85;100.00
8334;BME280;4204;43.004;23.052;2023-05-23T04:24:32;93656.38;;;11.77;100.00
8334;BME280;4204;43.004;23.052;2023-05-23T04:26:59;93650.38;;;11.80;100.00
8334;BME280;4204;43.004;23.052;2023-05-23T04:29:27;93653.66;;;11.85;100.00
8334;BME280;4204;43.004;23.052;2023-05-23T04:31:56;93650.53;;;11.83;100.00
8334;BME280;4204;43.004;23.052;2023-05-23T04:34:24;93655.47;;;12.35;100.00
8334;BME280;4204;43.004;23.052;2023-05-23T04:36:53;93654.38;;;12.48;100.00
8334;BME280;4204;43.004;23.052;2023-05-23T04:39:22;93655.56;;;12.59;100.00
8334;BME280;4204;43.004;23.052;2023-05-23T04:42:09;93660.16;;;12.70;100.00
8334;BME280;4204;43.004;23.052;2023-05-23T04:44:56;93660.84;;;12.79;100.00
8334;BME280;4204;43.004;23.052;2023-05-23T04:47:44;93660.19;;;12.82;100.00
8334;BME280;4204;43.004;23.052;2023-05-23T04:50:17;93659.09;;;12.95;100.00
8334;BME280;4204;43.004;23.052;2023-05-23T04:52:47;93659.34;;;13.02;100.00
8334;BME280;4204;43.004;23.052;2023-05-23T04:55:16;93655.28;;;13.17;100.00
8334;BME280;4204;43.004;23.052;2023-05-23T04:57:45;93657.41;;;13.24;100.00
8334;BME280;4204;43.004;23.052;2023-05-23T05:00:14;93655.63;;;13.28;100.00
8334;BME280;4204;43.004;23.052;2023-05-23T05:02:42;93656.88;;;13.30;100.00
8334;BME280;4204;43.004;23.052;2023-05-23T05:05:09;93656.72;;;13.39;100.00
8334;BME280;4204;43.004;23.052;2023-05-23T05:07:37;93662.75;;;13.48;100.00
8334;BME280;4204;43.004;23.052;2023-05-23T05:10:07;93653.53;;;13.69;100.00
8334;BME280;4204;43.004;23.052;2023-05-23T05:12:44;93644.47;;;13.86;100.00
8334;BME280;4204;43.004;23.052;2023-05-23T05:15:12;93646.44;;;14.01;100.00
8334;BME280;4204;43.004;23.052;2023-05-23T05:17:44;93643.28;;;14.11;100.00
8334;BME280;4204;43.004;23.052;2023-05-23T05:20:14;93646.19;;;14.18;100.00
8334;BME280;4204;43.004;23.052;2023-05-23T05:22:42;93625.44;;;14.15;100.00
8334;BME280;4204;43.004;23.052;2023-05-23T05:25:12;93651.09;;;14.28;100.00
8334;BME280;4204;43.004;23.052;2023-05-23T05:27:40;93648.56;;;14.47;100.00
8334;BME280;4204;43.004;23.052;2023-05-23T05:30:13;93650.53;;;14.63;100.00
8334;BME280;4204;43.004;23.052;2023-05-23T05:32:52;93654.38;;;14.77;100.00
8334;BME280;4204;43.004;23.052;2023-05-23T05:35:20;93648.94;;;14.89;100.00
8334;BME280;4204;43.004;23.052;2023-05-23T05:37:48;93654.81;;;14.95;100.00
8334;BME280;4204;43.004;23.052;2023-05-23T05:40:16;93654.06;;;15.10;100.00
8334;BME280;4204;43.004;23.052;2023-05-23T05:42:44;93659.69;;;15.20;100.00
8334;BME280;4204;43.004;23.052;2023-05-23T05:45:13;93663.25;;;15.24;100.00
8334;BME280;4204;43.004;23.052;2023-05-23T05:47:42;93663.25;;;15.40;100.00
8334;BME280;4204;43.004;23.052;2023-05-23T05:50:11;93667.78;;;15.52;100.00
8334;BME280;4204;43.004;23.052;2023-05-23T05:52:40;93661.63;;;15.51;100.00
8334;BME280;4204;43.004;23.052;2023-05-23T05:55:10;93661.97;;;15.65;100.00
8334;BME280;4204;43.004;23.052;2023-05-23T05:57:40;93666.19;;;15.82;100.00
8334;BME280;4204;43.004;23.052;2023-05-23T06:00:10;93659.84;;;16.05;100.00
8334;BME280;4204;43.004;23.052;2023-05-23T06:02:48;93666.38;;;16.08;100.00
8334;BME280;4204;43.004;23.052;2023-05-23T06:05:22;93672.69;;;16.15;100.00
8334;BME280;4204;43.004;23.052;2023-05-23T06:07:52;93669.41;;;16.22;100.00
8334;BME280;4204;43.004;23.052;2023-05-23T06:10:21;93671.38;;;16.25;100.00
8334;BME280;4204;43.004;23.052;2023-05-23T06:12:50;93669.47;;;16.26;100.00
8334;BME280;4204;43.004;23.052;2023-05-23T06:15:18;93667.47;;;16.23;100.00
8334;BME280;4204;43.004;23.052;2023-05-23T06:17:47;93670.81;;;16.35;100.00
8334;BME280;4204;43.004;23.052;2023-05-23T06:20:16;93664.66;;;16.35;100.00
8334;BME280;4204;43.004;23.052;2023-05-23T06:22:47;93668.00;;;16.47;100.00
8334;BME280;4204;43.004;23.052;2023-05-23T06:25:14;93673.47;;;16.51;100.00
8334;BME280;4204;43.004;23.052;2023-05-23T06:27:42;93665.84;;;16.53;100.00
8334;BME280;4204;43.004;23.052;2023-05-23T06:30:12;93658.34;;;16.62;100.00
8334;BME280;4204;43.004;23.052;2023-05-23T06:32:40;93667.53;;;16.61;100.00
8334;BME280;4204;43.004;23.052;2023-05-23T06:35:10;93662.66;;;16.66;100.00
8334;BME280;4204;43.004;23.052;2023-05-23T06:37:38;93662.22;;;16.64;100.00
8334;BME280;4204;43.004;23.052;2023-05-23T06:40:11;93670.66;;;16.82;100.00
8334;BME280;4204;43.004;23.052;2023-05-23T06:42:39;93664.50;;;16.81;100.00
8334;BME280;4204;43.004;23.052;2023-05-23T06:45:39;93672.75;;;16.92;100.00
8334;BME280;4204;43.004;23.052;2023-05-23T06:48:09;93665.13;;;16.94;100.00
8334;BME280;4204;43.004;23.052;2023-05-23T06:50:39;93660.28;;;17.03;100.00
8334;BME280;4204;43.004;23.052;2023-05-23T06:53:07;93666.44;;;17.04;100.00
8334;BME280;4204;43.004;23.052;2023-05-23T06:55:35;93660.19;;;17.19;100.00
8334;BME280;4204;43.004;23.052;2023-05-23T06:58:04;93648.78;;;17.25;100.00
8334;BME280;4204;43.004;23.052;2023-05-23T07:00:33;93643.19;;;17.34;100.00
8334;BME280;4204;43.004;23.052;2023-05-23T07:03:16;93639.59;;;17.26;100.00
8334;BME280;4204;43.004;23.052;2023-05-23T07:05:45;93647.84;;;17.37;100.00
8334;BME280;4204;43.004;23.052;2023-05-23T07:08:15;93653.19;;;17.56;100.00
8334;BME280;4204;43.004;23.052;2023-05-23T07:10:54;93643.63;;;17.58;100.00
8334;BME280;4204;43.004;23.052;2023-05-23T07:13:42;93646.16;;;17.74;100.00
8334;BME280;4204;43.004;23.052;2023-05-23T07:16:17;93645.91;;;17.83;100.00
8334;BME280;4204;43.004;23.052;2023-05-23T07:18:55;93647.16;;;17.89;100.00
8334;BME280;4204;43.004;23.052;2023-05-23T07:21:24;93645.03;;;18.01;100.00
8334;BME280;4204;43.004;23.052;2023-05-23T07:23:52;93637.06;;;18.08;100.00
8334;BME280;4204;43.004;23.052;2023-05-23T07:26:21;93634.06;;;18.13;100.00
8334;BME280;4204;43.004;23.052;2023-05-23T07:28:52;93629.22;;;18.26;100.00
8334;BME280;4204;43.004;23.052;2023-05-23T07:31:20;93633.41;;;18.23;100.00
8334;BME280;4204;43.004;23.052;2023-05-23T07:33:50;93614.25;;;18.28;100.00
8334;BME280;4204;43.004;23.052;2023-05-23T07:36:25;93630.59;;;18.42;100.00
8334;BME280;4204;43.004;23.052;2023-05-23T07:38:55;93634.56;;;18.48;100.00
8334;BME280;4204;43.004;23.052;2023-05-23T07:41:22;93623.47;;;18.53;100.00
8334;BME280;4204;43.004;23.052;2023-05-23T07:43:50;93625.88;;;18.62;100.00
8334;BME280;4204;43.004;23.052;2023-05-23T07:46:18;93627.16;;;18.75;100.00
8334;BME280;4204;43.004;23.052;2023-05-23T07:48:48;93610.53;;;18.66;100.00
8334;BME280;4204;43.004;23.052;2023-05-23T07:51:16;93627.22;;;18.79;100.00
8334;BME280;4204;43.004;23.052;2023-05-23T07:53:48;93619.41;;;19.03;100.00
8334;BME280;4204;43.004;23.052;2023-05-23T07:56:16;93627.53;;;19.10;100.00
8334;BME280;4204;43.004;23.052;2023-05-23T07:58:43;93629.91;;;19.15;100.00
8334;BME280;4204;43.004;23.052;2023-05-23T08:01:11;93627.25;;;19.19;100.00
8334;BME280;4204;43.004;23.052;2023-05-23T08:03:58;93623.09;;;19.28;100.00
8334;BME280;4204;43.004;23.052;2023-05-23T08:06:31;93618.59;;;19.36;100.00
8334;BME280;4204;43.004;23.052;2023-05-23T08:09:04;93622.59;;;19.53;100.00
8334;BME280;4204;43.004;23.052;2023-05-23T08:11:35;93615.63;;;19.52;100.00
8334;BME280;4204;43.004;23.052;2023-05-23T08:14:03;93616.81;;;19.58;100.00
8334;BME280;4204;43.004;23.052;2023-05-23T08:16:37;93623.09;;;19.69;100.00
8334;BME280;4204;43.004;23.052;2023-05-23T08:19:10;93617.28;;;19.67;100.00
8334;BME280;4204;43.004;23.052;2023-05-23T08:21:38;93618.13;;;19.74;100.00
8334;BME280;4204;43.004;23.052;2023-05-23T08:24:08;93610.88;;;19.82;100.00
8334;BME280;4204;43.004;23.052;2023-05-23T08:26:37;93611.91;;;19.70;100.00
8334;BME280;4204;43.004;23.052;2023-05-23T08:29:08;93618.03;;;19.64;100.00
8334;BME280;4204;43.004;23.052;2023-05-23T08:31:36;93624.28;;;19.75;100.00
8334;BME280;4204;43.004;23.052;2023-05-23T08:34:04;93609.69;;;19.79;100.00
8334;BME280;4204;43.004;23.052;2023-05-23T08:36:33;93610.81;;;19.78;100.00
8334;BME280;4204;43.004;23.052;2023-05-23T08:39:02;93608.56;;;19.84;100.00
8334;BME280;4204;43.004;23.052;2023-05-23T08:41:36;93609.00;;;19.93;100.00
8334;BME280;4204;43.004;23.052;2023-05-23T08:44:09;93602.88;;;20.03;100.00
8334;BME280;4204;43.004;23.052;2023-05-23T08:46:45;93616.53;;;20.24;100.00
8334;BME280;4204;43.004;23.052;2023-05-23T08:49:43;93607.38;;;20.39;100.00
8334;BME280;4204;43.004;23.052;2023-05-23T08:52:13;93604.34;;;20.51;100.00
8334;BME280;4204;43.004;23.052;2023-05-23T08:54:47;93609.00;;;20.61;100.00
8334;BME280;4204;43.004;23.052;2023-05-23T08:57:16;93598.63;;;20.70;100.00
8334;BME280;4204;43.004;23.052;2023-05-23T08:59:50;93619.88;;;20.75;100.00
8334;BME280;4204;43.004;23.052;2023-05-23T09:02:19;93616.41;;;20.75;100.00
8334;BME280;4204;43.004;23.052;2023-05-23T09:04:49;93604.84;;;20.85;100.00
8334;BME280;4204;43.004;23.052;2023-05-23T09:07:21;93609.91;;;21.01;100.00
8334;BME280;4204;43.004;23.052;2023-05-23T09:09:51;93614.97;;;21.06;100.00
8334;BME280;4204;43.004;23.052;2023-05-23T09:12:20;93618.47;;;21.10;100.00
8334;BME280;4204;43.004;23.052;2023-05-23T09:14:49;93622.59;;;20.86;100.00
8334;BME280;4204;43.004;23.052;2023-05-23T09:17:18;93625.69;;;20.84;100.00
8334;BME280;4204;43.004;23.052;2023-05-23T09:19:47;93626.75;;;20.59;100.00
8334;BME280;4204;43.004;23.052;2023-05-23T09:22:39;93631.69;;;20.43;100.00
8334;BME280;4204;43.004;23.052;2023-05-23T09:25:13;93621.25;;;20.38;100.00
8334;BME280;4204;43.004;23.052;2023-05-23T09:27:44;93616.25;;;20.43;100.00
8334;BME280;4204;43.004;23.052;2023-05-23T09:30:13;93620.19;;;20.60;100.00
8334;BME280;4204;43.004;23.052;2023-05-23T09:32:41;93608.66;;;20.66;100.00
8334;BME280;4204;43.004;23.052;2023-05-23T09:35:10;93620.25;;;20.67;100.00
8334;BME280;4204;43.004;23.052;2023-05-23T09:37:41;93618.75;;;20.83;100.00
8334;BME280;4204;43.004;23.052;2023-05-23T09:40:12;93622.28;;;20.98;100.00
8334;BME280;4204;43.004;23.052;2023-05-23T09:42:49;93620.41;;;21.20;100.00
8334;BME280;4204;43.004;23.052;2023-05-23T09:45:17;93620.41;;;21.20;100.00
8334;BME280;4204;43.004;23.052;2023-05-23T09:47:49;93624.31;;;21.36;100.00
8334;BME280;4204;43.004;23.052;2023-05-23T09:50:17;93622.75;;;21.32;100.00
8334;BME280;4204;43.004;23.052;2023-05-23T09:52:45;93611.19;;;21.45;100.00
8334;BME280;4204;43.004;23.052;2023-05-23T09:55:13;93614.66;;;21.53;100.00
8334;BME280;4204;43.004;23.052;2023-05-23T09:57:42;93610.78;;;21.64;100.00
8334;BME280;4204;43.004;23.052;2023-05-23T10:00:13;93611.19;;;21.77;100.00
8334;BME280;4204;43.004;23.052;2023-05-23T10:03:09;93601.53;;;21.83;100.00
8334;BME280;4204;43.004;23.052;2023-05-23T10:05:41;93607.72;;;21.94;100.00
8334;BME280;4204;43.004;23.052;2023-05-23T10:08:13;93593.41;;;21.97;100.00
8334;BME280;4204;43.004;23.052;2023-05-23T10:13:59;93602.28;;;22.15;100.00
8334;BME280;4204;43.004;23.052;2023-05-23T10:16:36;93600.72;;;22.18;100.00
8334;BME280;4204;43.004;23.052;2023-05-23T10:19:09;93602.25;;;22.29;100.00
8334;BME280;4204;43.004;23.052;2023-05-23T10:21:43;93601.84;;;22.20;100.00
8334;BME280;4204;43.004;23.052;2023-05-23T10:24:11;93594.94;;;22.16;100.00
8334;BME280;4204;43.004;23.052;2023-05-23T10:26:39;93600.34;;;22.09;100.00
8334;BME280;4204;43.004;23.052;2023-05-23T10:29:07;93598.78;;;22.22;100.00
8334;BME280;4204;43.004;23.052;2023-05-23T10:31:37;93594.44;;;22.45;100.00
8334;BME280;4204;43.004;23.052;2023-05-23T10:34:13;93582.03;;;22.66;100.00
8334;BME280;4204;43.004;23.052;2023-05-23T10:36:50;93583.16;;;22.72;100.00
8334;BME280;4204;43.004;23.052;2023-05-23T10:39:26;93580.78;;;22.81;100.00
8334;BME280;4204;43.004;23.052;2023-05-23T10:42:02;93579.56;;;22.89;100.00
8334;BME280;4204;43.004;23.052;2023-05-23T10:44:32;93565.69;;;22.80;100.00
8334;BME280;4204;43.004;23.052;2023-05-23T10:47:02;93570.22;;;22.97;100.00
8334;BME280;4204;43.004;23.052;2023-05-23T10:49:37;93569.53;;;22.86;100.00
8334;BME280;4204;43.004;23.052;2023-05-23T10:52:05;93550.25;;;22.55;100.00
8334;BME280;4204;43.004;23.052;2023-05-23T10:54:34;93554.31;;;23.02;100.00
8334;BME280;4204;43.004;23.052;2023-05-23T10:57:02;93560.84;;;23.12;100.00
8334;BME280;4204;43.004;23.052;2023-05-23T10:59:31;93559.19;;;23.32;100.00
8334;BME280;4204;43.004;23.052;2023-05-23T11:01:59;93539.44;;;23.24;100.00
8334;BME280;4204;43.004;23.052;2023-05-23T11:04:29;93561.88;;;23.28;100.00
8334;BME280;4204;43.004;23.052;2023-05-23T11:06:57;93561.06;;;23.42;100.00
8334;BME280;4204;43.004;23.052;2023-05-23T11:09:25;93545.53;;;23.43;100.00
8334;BME280;4204;43.004;23.052;2023-05-23T11:11:54;93556.00;;;23.44;100.00
8334;BME280;4204;43.004;23.052;2023-05-23T11:14:52;93541.53;;;23.58;100.00
8334;BME280;4204;43.004;23.052;2023-05-23T11:17:30;93542.28;;;23.62;100.00
8334;BME280;4204;43.004;23.052;2023-05-23T11:20:02;93543.66;;;23.29;100.00
8334;BME280;4204;43.004;23.052;2023-05-23T11:22:33;93535.66;;;23.08;100.00
8334;BME280;4204;43.004;23.052;2023-05-23T11:25:05;93543.63;;;23.36;100.00
8334;BME280;4204;43.004;23.052;2023-05-23T11:27:35;93546.75;;;23.31;100.00
8334;BME280;4204;43.004;23.052;2023-05-23T11:30:08;93527.63;;;23.49;100.00
8334;BME280;4204;43.004;23.052;2023-05-23T11:32:39;93530.63;;;23.61;100.00
8334;BME280;4204;43.004;23.052;2023-05-23T11:35:09;93528.69;;;23.62;100.00
8334;BME280;4204;43.004;23.052;2023-05-23T11:37:37;93531.47;;;23.55;100.00
8334;BME280;4204;43.004;23.052;2023-05-23T11:40:28;93534.28;;;23.41;100.00
8334;BME280;4204;43.004;23.052;2023-05-23T11:42:56;93541.72;;;23.33;100.00
8334;BME280;4204;43.004;23.052;2023-05-23T11:45:26;93538.63;;;23.31;100.00
8334;BME280;4204;43.004;23.052;2023-05-23T11:47:54;93542.88;;;23.32;100.00
8334;BME280;4204;43.004;23.052;2023-05-23T11:50:23;93546.09;;;23.16;100.00
8334;BME280;4204;43.004;23.052;2023-05-23T11:52:51;93536.25;;;23.37;100.00
8334;BME280;4204;43.004;23.052;2023-05-23T11:55:21;93544.34;;;23.47;100.00
8334;BME280;4204;43.004;23.052;2023-05-23T11:57:49;93525.66;;;23.56;100.00
8334;BME280;4204;43.004;23.052;2023-05-23T12:00:18;93546.13;;;23.64;100.00
8334;BME280;4204;43.004;23.052;2023-05-23T12:02:46;93545.53;;;23.43;100.00
8334;BME280;4204;43.004;23.052;2023-05-23T12:05:14;93532.59;;;23.06;100.00
8334;BME280;4204;43.004;23.052;2023-05-23T12:07:45;93534.59;;;22.95;100.00
8334;BME280;4204;43.004;23.052;2023-05-23T12:10:14;93536.19;;;22.85;100.00
8334;BME280;4204;43.004;23.052;2023-05-23T12:12:43;93534.78;;;22.52;100.00
8334;BME280;4204;43.004;23.052;2023-05-23T12:15:12;93540.31;;;22.21;100.00
8334;BME280;4204;43.004;23.052;2023-05-23T12:17:43;93541.47;;;22.23;100.00
8334;BME280;4204;43.004;23.052;2023-05-23T12:20:11;93538.38;;;22.25;100.00
8334;BME280;4204;43.004;23.052;2023-05-23T12:22:39;93544.59;;;22.18;100.00
8334;BME280;4204;43.004;23.052;2023-05-23T12:25:09;93548.16;;;21.91;100.00
8334;BME280;4204;43.004;23.052;2023-05-23T12:27:39;93548.53;;;21.68;100.00
8334;BME280;4204;43.004;23.052;2023-05-23T12:30:10;93559.75;;;21.63;100.00
8334;BME280;4204;43.004;23.052;2023-05-23T12:32:41;93556.28;;;21.59;100.00
8334;BME280;4204;43.004;23.052;2023-05-23T12:35:10;93559.75;;;21.52;100.00
8334;BME280;4204;43.004;23.052;2023-05-23T12:37:38;93552.41;;;21.42;100.00
8334;BME280;4204;43.004;23.052;2023-05-23T12:40:12;93531.16;;;21.34;100.00
8334;BME280;4204;43.004;23.052;2023-05-23T12:42:48;93550.09;;;21.55;100.00
8334;BME280;4204;43.004;23.052;2023-05-23T12:45:16;93543.16;;;21.54;100.00
8334;BME280;4204;43.004;23.052;2023-05-23T12:47:43;93542.38;;;21.64;100.00
8334;BME280;4204;43.004;23.052;2023-05-23T12:50:11;93529.97;;;21.73;100.00
8334;BME280;4204;43.004;23.052;2023-05-23T12:52:39;93528.06;;;21.85;100.00
8334;BME280;4204;43.004;23.052;2023-05-23T12:55:08;93523.41;;;21.89;100.00
8334;BME280;4204;43.004;23.052;2023-05-23T12:57:37;93519.47;;;22.07;100.00
8334;BME280;4204;43.004;23.052;2023-05-23T13:00:06;93515.53;;;22.29;100.00
8334;BME280;4204;43.004;23.052;2023-05-23T13:02:34;93522.47;;;22.37;100.00
8334;BME280;4204;43.004;23.052;2023-05-23T13:05:02;93526.38;;;22.29;100.00
8334;BME280;4204;43.004;23.052;2023-05-23T13:07:30;93519.00;;;22.33;100.00
8334;BME280;4204;43.004;23.052;2023-05-23T13:09:57;93509.66;;;22.41;100.00
8334;BME280;4204;43.004;23.052;2023-05-23T13:12:25;93512.38;;;22.41;100.00
8334;BME280;4204;43.004;23.052;2023-05-23T13:14:55;93511.13;;;22.67;100.00
8334;BME280;4204;43.004;23.052;2023-05-23T13:17:23;93509.88;;;22.79;100.00
8334;BME280;4204;43.004;23.052;2023-05-23T13:19:51;93511.69;;;22.99;100.00